createdAt,value
2023-03-22T00:01:36.689Z,13.00
2023-03-22T00:04:04.803Z,13.00
2023-03-22T00:06:34.087Z,13.00
2023-03-22T00:09:02.012Z,13.00
2023-03-22T00:11:29.904Z,12.90
2023-03-22T00:13:58.998Z,12.70
2023-03-22T00:16:27.037Z,12.60
2023-03-22T00:18:55.050Z,12.50
2023-03-22T00:21:22.992Z,12.40
2023-03-22T00:23:52.361Z,12.40
2023-03-22T00:26:20.315Z,12.30
2023-03-22T00:28:48.278Z,12.30
2023-03-22T00:31:16.213Z,12.40
2023-03-22T00:33:44.221Z,12.30
2023-03-22T00:36:13.679Z,12.30
2023-03-22T00:38:43.415Z,12.30
2023-03-22T00:41:18.508Z,12.30
2023-03-22T00:43:48.066Z,12.30
2023-03-22T00:46:17.807Z,12.20
2023-03-22T00:48:45.912Z,12.20
2023-03-22T00:51:15.068Z,12.10
2023-03-22T00:53:43.994Z,12.00
2023-03-22T00:56:15.707Z,12.00
2023-03-22T00:58:45.471Z,12.00
2023-03-22T01:01:14.504Z,11.90
2023-03-22T01:03:43.440Z,11.90
2023-03-22T01:06:12.129Z,11.80
2023-03-22T01:08:40.125Z,11.80
2023-03-22T01:11:08.811Z,11.80
2023-03-22T01:13:38.499Z,11.80
2023-03-22T01:16:09.921Z,11.90
2023-03-22T01:18:38.276Z,11.90
2023-03-22T01:21:07.397Z,11.80
2023-03-22T01:23:35.404Z,11.80
2023-03-22T01:26:03.686Z,11.80
2023-03-22T01:28:32.002Z,11.70
2023-03-22T01:31:04.202Z,11.70
2023-03-22T01:33:33.587Z,11.70
2023-03-22T01:36:01.622Z,11.60
2023-03-22T01:38:29.694Z,11.50
2023-03-22T01:40:58.180Z,11.40
2023-03-22T01:43:26.133Z,11.30
2023-03-22T01:45:55.071Z,11.30
2023-03-22T01:48:27.948Z,11.30
2023-03-22T01:51:05.550Z,11.20
2023-03-22T01:53:38.009Z,11.20
2023-03-22T01:56:06.896Z,11.20
2023-03-22T01:58:37.989Z,11.10
2023-03-22T02:01:07.724Z,11.10
2023-03-22T02:03:44.496Z,11.10
2023-03-22T02:06:13.873Z,11.10
2023-03-22T02:08:42.630Z,11.10
2023-03-22T02:11:15.531Z,11.10
2023-03-22T02:14:03.550Z,11.20
2023-03-22T02:16:40.122Z,11.20
2023-03-22T02:19:30.597Z,11.20
2023-03-22T02:22:22.945Z,11.20
2023-03-22T02:25:18.616Z,11.20
2023-03-22T02:28:02.163Z,11.30
2023-03-22T02:30:55.738Z,11.30
2023-03-22T02:33:41.778Z,11.30
2023-03-22T02:36:36.678Z,11.30
2023-03-22T02:39:19.441Z,11.30
2023-03-22T02:42:09.010Z,11.40
2023-03-22T02:44:42.653Z,11.30
2023-03-22T02:47:21.950Z,11.40
2023-03-22T02:49:56.994Z,11.40
2023-03-22T02:52:28.962Z,11.40
2023-03-22T02:55:06.874Z,11.40
2023-03-22T02:57:38.837Z,11.40
2023-03-22T03:00:10.552Z,11.30
2023-03-22T03:02:42.349Z,11.20
2023-03-22T03:05:12.975Z,11.10
2023-03-22T03:07:44.261Z,11.00
2023-03-22T03:10:16.332Z,10.90
2023-03-22T03:12:44.879Z,10.90
2023-03-22T03:15:16.607Z,10.80
2023-03-22T03:17:58.921Z,10.70
2023-03-22T03:20:35.234Z,10.60
2023-03-22T03:23:17.505Z,10.50
2023-03-22T03:25:53.184Z,10.40
2023-03-22T03:28:30.179Z,10.40
2023-03-22T03:31:02.180Z,10.30
2023-03-22T03:33:33.658Z,10.20
2023-03-22T03:36:06.332Z,10.40
2023-03-22T03:38:38.810Z,10.10
2023-03-22T03:41:12.313Z,10.10
2023-03-22T03:43:41.088Z,10.10
2023-03-22T03:46:09.716Z,10.00
2023-03-22T03:48:40.387Z,10.00
2023-03-22T03:51:08.896Z,10.00
2023-03-22T03:53:36.870Z,9.90
2023-03-22T03:56:05.234Z,9.90
2023-03-22T03:58:34.519Z,9.90
2023-03-22T04:01:04.125Z,9.80
2023-03-22T04:03:33.037Z,9.90
2023-03-22T04:06:01.151Z,9.90
2023-03-22T04:08:29.162Z,9.90
2023-03-22T04:10:57.140Z,9.90
2023-03-22T04:13:25.801Z,9.90
2023-03-22T04:15:57.503Z,9.90
2023-03-22T04:18:25.500Z,9.90
2023-03-22T04:20:53.642Z,9.90
2023-03-22T04:23:23.233Z,9.90
2023-03-22T04:25:51.449Z,9.80
2023-03-22T04:28:20.321Z,9.80
2023-03-22T04:30:51.942Z,9.70
2023-03-22T04:33:22.869Z,9.70
2023-03-22T04:35:56.723Z,9.70
2023-03-22T04:38:25.232Z,9.60
2023-03-22T04:40:53.201Z,9.60
2023-03-22T04:43:21.134Z,9.60
2023-03-22T04:45:49.429Z,9.60
2023-03-22T04:48:17.704Z,9.60
2023-03-22T04:50:47.096Z,9.70
2023-03-22T04:53:15.168Z,9.70
2023-03-22T04:55:45.494Z,9.70
2023-03-22T04:58:13.416Z,9.70
2023-03-22T05:00:42.372Z,9.60
2023-03-22T05:03:10.571Z,9.60
2023-03-22T05:05:39.697Z,9.60
2023-03-22T05:08:09.088Z,10.00
2023-03-22T05:10:41.576Z,9.60
2023-03-22T05:13:09.837Z,9.60
2023-03-22T05:15:41.787Z,9.60
2023-03-22T05:18:10.339Z,9.60
2023-03-22T05:20:38.871Z,9.70
2023-03-22T05:23:09.862Z,9.60
2023-03-22T05:25:38.341Z,9.60
2023-03-22T05:28:07.343Z,9.60
2023-03-22T05:30:35.336Z,9.50
2023-03-22T05:33:05.118Z,9.50
2023-03-22T05:35:34.635Z,9.60
2023-03-22T05:38:02.563Z,9.80
2023-03-22T05:40:32.479Z,9.90
2023-03-22T05:43:00.458Z,10.00
2023-03-22T05:45:28.544Z,10.10
2023-03-22T05:47:56.608Z,10.20
2023-03-22T05:50:25.148Z,10.60
2023-03-22T05:52:53.456Z,10.30
2023-03-22T05:55:22.350Z,10.40
2023-03-22T05:57:53.952Z,10.50
2023-03-22T06:00:23.777Z,10.80
2023-03-22T06:02:56.323Z,11.20
2023-03-22T06:05:24.661Z,11.60
2023-03-22T06:07:53.101Z,11.90
2023-03-22T06:10:21.301Z,12.10
2023-03-22T06:12:49.305Z,12.40
2023-03-22T06:15:18.929Z,12.70
2023-03-22T06:17:47.773Z,13.00
2023-03-22T06:20:16.374Z,13.50
2023-03-22T06:22:44.574Z,14.00
2023-03-22T06:25:12.909Z,14.60
2023-03-22T06:27:41.009Z,15.20
2023-03-22T06:30:10.397Z,15.90
2023-03-22T06:32:39.788Z,16.70
2023-03-22T06:35:08.961Z,17.60
2023-03-22T06:37:36.956Z,18.30
2023-03-22T06:40:05.854Z,19.00
2023-03-22T06:42:34.295Z,19.20
2023-03-22T06:45:02.381Z,19.30
2023-03-22T06:47:30.421Z,19.80
2023-03-22T06:49:59.915Z,20.20
2023-03-22T06:52:28.017Z,20.20
2023-03-22T06:55:00.181Z,20.10
2023-03-22T06:57:28.388Z,19.90
2023-03-22T06:59:56.380Z,20.10
2023-03-22T07:02:24.534Z,20.20
2023-03-22T07:04:52.550Z,20.30
2023-03-22T07:07:22.272Z,20.50
2023-03-22T07:09:51.190Z,20.90
2023-03-22T07:12:22.023Z,21.60
2023-03-22T07:14:50.588Z,21.60
2023-03-22T07:17:18.879Z,22.40
2023-03-22T07:19:46.992Z,23.00
2023-03-22T07:22:15.016Z,23.70
2023-03-22T07:24:55.998Z,24.40
2023-03-22T07:27:25.332Z,24.70
2023-03-22T07:29:54.264Z,25.00
2023-03-22T07:32:22.390Z,25.20
2023-03-22T07:34:50.684Z,25.60
2023-03-22T07:37:18.967Z,25.90
2023-03-22T07:39:48.462Z,26.20
2023-03-22T07:42:16.440Z,26.60
2023-03-22T07:44:44.506Z,27.00
2023-03-22T07:47:12.754Z,27.30
2023-03-22T07:49:40.862Z,27.50
2023-03-22T07:52:09.244Z,27.60
2023-03-22T07:54:37.231Z,27.60
2023-03-22T07:57:06.989Z,28.00
2023-03-22T07:59:37.372Z,28.40
2023-03-22T08:02:06.829Z,28.50
2023-03-22T08:04:35.347Z,28.90
2023-03-22T08:07:03.492Z,28.90
2023-03-22T08:09:31.623Z,28.50
2023-03-22T08:11:59.766Z,28.20
2023-03-22T08:14:36.303Z,28.30
2023-03-22T08:17:05.754Z,28.40
2023-03-22T08:19:34.189Z,28.60
2023-03-22T08:22:02.320Z,28.70
2023-03-22T08:24:30.431Z,28.80
2023-03-22T08:26:59.093Z,29.00
2023-03-22T08:29:28.761Z,29.30
2023-03-22T08:32:02.078Z,29.20
2023-03-22T08:34:31.529Z,29.60
2023-03-22T08:36:59.538Z,30.30
2023-03-22T08:39:28.111Z,31.10
2023-03-22T08:41:56.512Z,31.00
2023-03-22T08:44:24.598Z,31.20
2023-03-22T08:46:54.507Z,31.30
2023-03-22T08:49:22.709Z,31.70
2023-03-22T08:51:51.038Z,31.30
2023-03-22T08:54:19.238Z,31.00
2023-03-22T08:56:48.317Z,30.90
2023-03-22T08:59:16.296Z,30.40
2023-03-22T09:01:44.449Z,30.20
2023-03-22T09:04:13.849Z,30.50
2023-03-22T09:06:45.236Z,30.70
2023-03-22T09:09:13.502Z,30.90
2023-03-22T09:11:42.781Z,30.90
2023-03-22T09:14:10.920Z,30.80
2023-03-22T09:16:39.069Z,30.70
2023-03-22T09:19:07.590Z,30.60
2023-03-22T09:21:37.049Z,30.40
2023-03-22T09:24:05.149Z,30.30
2023-03-22T09:26:33.214Z,30.50
2023-03-22T09:29:01.312Z,30.30
2023-03-22T09:31:29.612Z,30.50
2023-03-22T09:33:57.768Z,30.20
2023-03-22T09:36:26.050Z,30.00
2023-03-22T09:38:56.443Z,30.10
2023-03-22T09:41:31.202Z,30.10
2023-03-22T09:44:05.109Z,30.50
2023-03-22T09:46:36.878Z,30.60
2023-03-22T09:49:11.625Z,30.20
2023-03-22T09:51:42.091Z,30.50
2023-03-22T09:54:21.616Z,30.70
2023-03-22T09:56:54.793Z,30.90
2023-03-22T09:59:27.144Z,31.10
2023-03-22T10:01:59.504Z,31.10
2023-03-22T10:04:45.194Z,31.20
2023-03-22T10:07:21.582Z,31.50
2023-03-22T10:10:00.155Z,31.90
2023-03-22T10:12:31.122Z,32.30
2023-03-22T10:15:06.876Z,32.30
2023-03-22T10:17:37.848Z,32.40
2023-03-22T10:20:10.245Z,32.70
2023-03-22T10:22:42.770Z,32.90
2023-03-22T10:25:18.419Z,32.30
2023-03-22T10:27:49.875Z,31.60
2023-03-22T10:30:22.733Z,30.90
2023-03-22T10:32:58.465Z,30.90
2023-03-22T10:35:26.923Z,30.30
2023-03-22T10:37:56.878Z,30.10
2023-03-22T10:40:29.822Z,29.90
2023-03-22T10:43:00.924Z,29.70
2023-03-22T10:45:29.267Z,29.40
2023-03-22T10:48:02.016Z,29.10
2023-03-22T10:50:33.814Z,29.20
2023-03-22T10:53:06.676Z,28.80
2023-03-22T10:55:41.220Z,28.50
2023-03-22T10:58:15.640Z,28.50
2023-03-22T11:00:49.151Z,28.40
2023-03-22T11:03:30.758Z,28.10
2023-03-22T11:06:03.920Z,27.70
2023-03-22T11:08:40.450Z,27.50
2023-03-22T11:11:18.446Z,27.40
2023-03-22T11:13:52.880Z,27.00
2023-03-22T11:16:21.444Z,26.80
2023-03-22T11:18:49.623Z,26.70
2023-03-22T11:21:19.258Z,26.50
2023-03-22T11:23:55.370Z,26.00
2023-03-22T11:26:30.938Z,25.50
2023-03-22T11:29:06.791Z,24.90
2023-03-22T11:31:57.112Z,24.80
2023-03-22T11:34:27.627Z,25.10
2023-03-22T11:36:57.601Z,25.60
2023-03-22T11:39:28.396Z,26.00
2023-03-22T11:42:01.568Z,26.00
2023-03-22T11:44:34.039Z,25.60
2023-03-22T11:47:04.044Z,25.00
2023-03-22T11:49:40.984Z,24.70
2023-03-22T11:52:12.743Z,24.70
2023-03-22T11:54:42.580Z,25.00
2023-03-22T11:57:16.934Z,25.30
2023-03-22T11:59:50.451Z,25.20
2023-03-22T12:02:24.521Z,25.20
2023-03-22T12:04:57.538Z,25.00
2023-03-22T12:07:27.920Z,24.80
2023-03-22T12:10:03.333Z,24.30
2023-03-22T12:12:37.809Z,23.80
2023-03-22T12:15:14.198Z,23.40
2023-03-22T12:17:46.555Z,23.20
2023-03-22T12:20:22.774Z,23.20
2023-03-22T12:22:54.702Z,23.00
2023-03-22T12:25:26.053Z,22.80
2023-03-22T12:27:58.144Z,22.80
2023-03-22T12:30:29.324Z,22.90
2023-03-22T12:33:03.545Z,23.00
2023-03-22T12:35:34.499Z,22.80
2023-03-22T12:38:13.031Z,22.30
2023-03-22T12:40:42.526Z,22.20
2023-03-22T12:43:17.836Z,22.20
2023-03-22T12:45:50.270Z,22.30
2023-03-22T12:48:22.326Z,22.40
2023-03-22T12:50:54.513Z,22.40
2023-03-22T12:53:27.041Z,22.60
2023-03-22T12:55:56.604Z,22.70
2023-03-22T12:58:27.628Z,22.80
2023-03-22T13:00:58.988Z,22.90
2023-03-22T13:03:29.881Z,23.00
2023-03-22T13:06:04.630Z,23.10
2023-03-22T13:09:10.675Z,23.10
2023-03-22T13:11:38.875Z,23.20
2023-03-22T13:14:10.968Z,23.40
2023-03-22T13:17:00.346Z,23.40
2023-03-22T13:19:33.063Z,23.40
2023-03-22T13:22:24.228Z,23.20
2023-03-22T13:25:08.587Z,22.80
2023-03-22T13:27:39.282Z,22.50
2023-03-22T13:30:17.912Z,22.40
2023-03-22T13:32:54.517Z,22.40
2023-03-22T13:35:28.012Z,22.40
2023-03-22T13:38:02.649Z,22.50
2023-03-22T13:40:35.938Z,22.70
2023-03-22T13:43:13.084Z,23.20
2023-03-22T13:46:02.751Z,22.80
2023-03-22T13:48:40.867Z,22.80
2023-03-22T13:51:15.431Z,22.90
2023-03-22T13:53:51.264Z,23.20
2023-03-22T13:56:33.721Z,23.30
2023-03-22T13:59:04.458Z,23.20
2023-03-22T14:01:36.279Z,23.10
2023-03-22T14:04:10.578Z,23.10
2023-03-22T14:06:47.977Z,23.00
2023-03-22T14:09:24.987Z,22.80
2023-03-22T14:11:58.050Z,22.60
2023-03-22T14:14:31.084Z,22.40
2023-03-22T14:17:05.922Z,22.40
2023-03-22T14:19:35.981Z,22.40
